createdAt,value
2023-05-02T00:02:08.780Z,60.91
2023-05-02T00:04:36.400Z,60.81
2023-05-02T00:07:05.881Z,60.83
2023-05-02T00:09:32.744Z,60.82
2023-05-02T00:11:59.877Z,60.78
2023-05-02T00:14:29.156Z,60.74
2023-05-02T00:16:56.142Z,60.80
2023-05-02T00:19:23.188Z,60.65
2023-05-02T00:21:50.219Z,60.61
2023-05-02T00:24:17.903Z,60.58
2023-05-02T00:26:44.863Z,60.51
2023-05-02T00:29:11.813Z,60.49
2023-05-02T00:31:41.466Z,60.52
2023-05-02T00:34:08.522Z,60.47
2023-05-02T00:36:36.074Z,60.44
2023-05-02T00:39:03.827Z,60.45
2023-05-02T00:41:32.085Z,60.36
2023-05-02T00:43:59.011Z,60.33
2023-05-02T00:46:25.906Z,60.33
2023-05-02T00:48:52.806Z,60.34
2023-05-02T00:51:20.426Z,60.38
2023-05-02T00:53:47.435Z,60.35
2023-05-02T00:56:14.943Z,60.38
2023-05-02T00:58:44.301Z,60.35
2023-05-02T01:01:21.777Z,60.51
2023-05-02T01:03:58.034Z,60.61
2023-05-02T01:07:11.376Z,60.66
2023-05-02T01:09:50.188Z,60.76
2023-05-02T01:12:33.662Z,60.91
2023-05-02T01:15:03.600Z,60.95
2023-05-02T01:17:32.701Z,61.08
2023-05-02T01:20:03.553Z,61.05
2023-05-02T01:22:31.545Z,60.91
2023-05-02T01:25:09.396Z,61.02
2023-05-02T01:27:43.374Z,61.07
2023-05-02T01:30:10.421Z,61.15
2023-05-02T01:32:38.432Z,61.30
2023-05-02T01:35:06.082Z,61.38
2023-05-02T01:37:33.536Z,61.47
2023-05-02T01:40:00.779Z,61.53
2023-05-02T01:42:28.227Z,61.63
2023-05-02T01:44:57.902Z,61.72
2023-05-02T01:47:25.057Z,61.73
2023-05-02T01:49:53.162Z,61.81
2023-05-02T01:52:20.223Z,61.84
2023-05-02T01:54:47.160Z,61.79
2023-05-02T01:57:15.349Z,61.94
2023-05-02T01:59:43.125Z,61.97
2023-05-02T02:02:10.161Z,61.94
2023-05-02T02:04:38.485Z,61.89
2023-05-02T02:07:09.175Z,61.90
2023-05-02T02:09:36.844Z,61.97
2023-05-02T02:12:11.055Z,62.00
2023-05-02T02:14:38.329Z,62.03
2023-05-02T02:17:22.189Z,62.00
2023-05-02T02:19:49.153Z,62.00
2023-05-02T02:22:16.150Z,62.01
2023-05-02T02:24:43.250Z,62.05
2023-05-02T02:27:10.266Z,62.02
2023-05-02T02:29:37.188Z,62.10
2023-05-02T02:32:04.379Z,62.04
2023-05-02T02:34:31.347Z,62.06
2023-05-02T02:37:01.522Z,62.00
2023-05-02T02:39:50.586Z,61.96
2023-05-02T02:42:20.627Z,61.94
2023-05-02T02:45:10.373Z,62.03
2023-05-02T02:48:02.770Z,61.82
2023-05-02T02:51:15.675Z,61.85
2023-05-02T02:53:54.904Z,61.86
2023-05-02T02:56:41.776Z,61.94
2023-05-02T02:59:29.621Z,61.97
2023-05-02T03:02:09.163Z,61.92
2023-05-02T03:04:38.542Z,61.97
2023-05-02T03:07:05.727Z,62.02
2023-05-02T03:09:43.505Z,62.07
2023-05-02T03:12:11.695Z,62.03
2023-05-02T03:14:39.909Z,62.03
2023-05-02T03:17:10.217Z,61.98
2023-05-02T03:19:37.983Z,61.93
2023-05-02T03:22:05.206Z,61.80
2023-05-02T03:24:33.534Z,61.70
2023-05-02T03:27:00.559Z,61.62
2023-05-02T03:29:31.050Z,61.51
2023-05-02T03:31:58.064Z,61.40
2023-05-02T03:34:25.764Z,61.39
2023-05-02T03:36:52.828Z,61.30
2023-05-02T03:39:20.558Z,61.32
2023-05-02T03:41:50.639Z,61.27
2023-05-02T03:44:20.740Z,61.20
2023-05-02T03:46:47.984Z,61.05
2023-05-02T03:49:15.266Z,60.64
2023-05-02T03:51:43.315Z,60.44
2023-05-02T03:54:11.792Z,60.30
2023-05-02T03:56:42.129Z,60.25
2023-05-02T03:59:19.755Z,60.25
2023-05-02T04:01:50.594Z,60.23
2023-05-02T04:04:19.948Z,60.24
2023-05-02T04:06:50.870Z,60.16
2023-05-02T04:09:19.913Z,60.18
2023-05-02T04:11:52.340Z,60.27
2023-05-02T04:14:20.905Z,60.31
2023-05-02T04:16:49.611Z,60.31
2023-05-02T04:19:20.023Z,60.42
2023-05-02T04:21:47.087Z,60.48
2023-05-02T04:24:14.634Z,60.32
2023-05-02T04:26:42.385Z,60.16
2023-05-02T04:29:13.068Z,59.95
2023-05-02T04:31:40.144Z,59.37
2023-05-02T04:34:10.007Z,58.35
2023-05-02T04:36:42.089Z,57.21
2023-05-02T04:39:11.988Z,56.48
2023-05-02T04:41:42.918Z,55.59
2023-05-02T04:44:10.279Z,54.64
2023-05-02T04:46:38.259Z,53.35
2023-05-02T04:49:05.713Z,52.36
2023-05-02T04:51:32.782Z,51.21
2023-05-02T04:54:00.116Z,50.07
2023-05-02T04:56:27.353Z,49.29
2023-05-02T04:58:56.414Z,48.19
2023-05-02T05:01:27.462Z,47.63
2023-05-02T05:03:55.378Z,47.08
2023-05-02T05:06:22.403Z,46.39
2023-05-02T05:08:49.807Z,46.03
2023-05-02T05:11:17.039Z,45.45
2023-05-02T05:13:44.356Z,45.25
2023-05-02T05:16:12.878Z,44.91
2023-05-02T05:18:40.786Z,43.36
2023-05-02T05:21:10.992Z,42.56
2023-05-02T05:23:45.480Z,42.36
2023-05-02T05:26:15.723Z,42.01
2023-05-02T05:28:45.929Z,41.46
2023-05-02T05:31:16.918Z,41.46
2023-05-02T05:33:47.333Z,41.14
2023-05-02T05:36:15.286Z,40.22
2023-05-02T05:38:42.592Z,39.42
2023-05-02T05:41:10.923Z,39.52
2023-05-02T05:43:42.326Z,38.92
2023-05-02T05:46:11.353Z,39.10
2023-05-02T05:48:38.399Z,38.22
2023-05-02T05:51:05.627Z,36.94
2023-05-02T05:53:33.052Z,35.99
2023-05-02T05:56:12.384Z,35.58
2023-05-02T05:58:43.752Z,35.06
2023-05-02T06:01:13.092Z,34.27
2023-05-02T06:03:41.098Z,34.05
2023-05-02T06:06:08.287Z,33.95
2023-05-02T06:08:35.654Z,33.53
2023-05-02T06:11:10.168Z,32.92
2023-05-02T06:13:37.597Z,32.94
2023-05-02T06:16:05.402Z,32.71
2023-05-02T06:18:33.161Z,32.83
2023-05-02T06:21:04.701Z,32.96
2023-05-02T06:23:33.156Z,32.88
2023-05-02T06:26:01.237Z,32.91
2023-05-02T06:28:28.462Z,32.60
2023-05-02T06:31:03.689Z,31.97
2023-05-02T06:33:32.156Z,31.49
2023-05-02T06:36:00.797Z,31.44
2023-05-02T06:38:29.501Z,31.72
2023-05-02T06:40:57.050Z,31.45
2023-05-02T06:43:24.485Z,31.30
2023-05-02T06:45:56.077Z,31.79
2023-05-02T06:48:23.195Z,31.89
2023-05-02T06:50:51.281Z,32.01
2023-05-02T06:53:18.203Z,31.82
2023-05-02T06:55:45.891Z,31.88
2023-05-02T06:58:14.190Z,31.74
2023-05-02T07:00:41.744Z,30.76
2023-05-02T07:03:13.046Z,30.23
2023-05-02T07:05:42.605Z,30.71
2023-05-02T07:08:11.256Z,30.62
2023-05-02T07:10:38.221Z,30.40
2023-05-02T07:13:05.151Z,30.21
2023-05-02T07:15:32.821Z,29.73
2023-05-02T07:18:00.507Z,29.29
2023-05-02T07:20:27.575Z,29.62
2023-05-02T07:22:54.504Z,30.04
2023-05-02T07:25:21.659Z,29.26
2023-05-02T07:27:49.935Z,28.70
2023-05-02T07:30:17.580Z,28.72
2023-05-02T07:32:45.003Z,28.41
2023-05-02T07:35:15.180Z,28.59
2023-05-02T07:37:42.485Z,27.99
2023-05-02T07:40:10.081Z,28.06
2023-05-02T07:42:37.133Z,28.21
2023-05-02T07:45:04.461Z,27.76
2023-05-02T07:47:31.872Z,27.64
2023-05-02T07:49:59.150Z,26.73
2023-05-02T07:52:26.485Z,26.44
2023-05-02T07:54:55.930Z,25.98
2023-05-02T07:57:26.208Z,25.55
2023-05-02T07:59:53.071Z,24.66
2023-05-02T08:02:21.330Z,24.69
2023-05-02T08:04:48.652Z,24.94
2023-05-02T08:07:16.431Z,25.67
2023-05-02T08:09:43.398Z,24.87
2023-05-02T08:12:10.295Z,24.20
2023-05-02T08:14:37.286Z,24.37
2023-05-02T08:17:04.147Z,24.00
2023-05-02T08:19:31.740Z,24.07
2023-05-02T08:21:58.942Z,23.92
2023-05-02T08:24:25.872Z,23.88
2023-05-02T08:26:52.744Z,23.84
2023-05-02T08:29:20.121Z,24.24
2023-05-02T08:31:48.436Z,24.25
2023-05-02T08:34:15.454Z,23.72
2023-05-02T08:36:44.062Z,23.71
2023-05-02T08:39:11.811Z,23.53
2023-05-02T08:41:38.936Z,23.32
2023-05-02T08:44:06.491Z,23.40
2023-05-02T08:46:35.637Z,23.37
2023-05-02T08:49:02.790Z,22.96
2023-05-02T08:51:32.145Z,23.15
2023-05-02T08:54:00.054Z,22.93
2023-05-02T08:56:29.148Z,23.02
2023-05-02T08:58:55.987Z,23.56
2023-05-02T09:01:23.816Z,23.59
2023-05-02T09:03:51.876Z,24.11
2023-05-02T09:06:20.276Z,23.87
2023-05-02T09:08:49.113Z,24.01
2023-05-02T09:11:16.467Z,23.45
2023-05-02T09:13:44.581Z,23.72
2023-05-02T09:16:25.411Z,24.05
2023-05-02T09:18:56.333Z,23.83
2023-05-02T09:21:34.473Z,24.02
2023-05-02T09:24:04.007Z,24.36
2023-05-02T09:26:32.121Z,24.69
2023-05-02T09:29:00.766Z,24.44
2023-05-02T09:31:54.939Z,24.10
2023-05-02T09:34:28.062Z,24.10
2023-05-02T09:37:05.835Z,23.98
2023-05-02T09:39:32.773Z,24.02
2023-05-02T09:42:00.771Z,24.01
2023-05-02T09:44:38.642Z,23.98
2023-05-02T09:47:06.382Z,24.08
2023-05-02T09:49:45.304Z,23.46
2023-05-02T09:52:17.371Z,23.34
2023-05-02T09:54:45.913Z,23.55
2023-05-02T09:57:12.891Z,23.04
2023-05-02T09:59:40.125Z,22.98
2023-05-02T10:02:09.232Z,23.32
2023-05-02T10:04:36.322Z,23.17
2023-05-02T10:07:03.444Z,23.23
2023-05-02T10:09:36.405Z,22.81
2023-05-02T10:12:07.759Z,22.48
2023-05-02T10:14:39.462Z,23.07
2023-05-02T10:17:23.254Z,22.98
2023-05-02T10:20:05.766Z,22.84
2023-05-02T10:22:33.432Z,22.95
2023-05-02T10:25:01.754Z,22.66
2023-05-02T10:27:30.633Z,23.05
2023-05-02T10:30:00.740Z,23.34
2023-05-02T10:32:31.721Z,23.48
2023-05-02T10:35:03.514Z,24.03
2023-05-02T10:37:33.240Z,23.44
2023-05-02T10:40:00.237Z,23.36
2023-05-02T10:42:28.881Z,23.29
2023-05-02T10:44:58.752Z,23.32
2023-05-02T10:47:39.900Z,23.32
2023-05-02T10:50:09.692Z,22.64
2023-05-02T10:52:37.876Z,22.67
2023-05-02T10:55:19.306Z,22.45
2023-05-02T10:57:58.625Z,22.11
2023-05-02T11:00:26.864Z,22.32
2023-05-02T11:02:54.232Z,22.09
2023-05-02T11:05:22.511Z,22.01
2023-05-02T11:07:49.667Z,21.92
2023-05-02T11:10:16.724Z,22.16
2023-05-02T11:12:48.603Z,21.77
2023-05-02T11:15:28.658Z,22.22
2023-05-02T11:18:09.210Z,21.45
2023-05-02T11:20:39.150Z,21.62
2023-05-02T11:23:17.376Z,21.50
2023-05-02T11:25:45.846Z,21.64
2023-05-02T11:28:42.355Z,21.64
2023-05-02T11:31:30.336Z,21.20
2023-05-02T11:33:58.412Z,21.11
2023-05-02T11:36:33.282Z,21.29
2023-05-02T11:39:05.303Z,21.44
2023-05-02T11:41:46.372Z,21.11
2023-05-02T11:44:15.743Z,20.48
2023-05-02T11:46:45.194Z,20.80
2023-05-02T11:49:14.749Z,21.14
2023-05-02T11:51:42.349Z,21.16
2023-05-02T11:54:09.884Z,20.87
2023-05-02T11:56:36.940Z,19.98
2023-05-02T11:59:04.402Z,20.84
2023-05-02T12:01:31.573Z,21.12
2023-05-02T12:04:06.902Z,21.04
2023-05-02T12:06:33.976Z,20.95
2023-05-02T12:09:12.722Z,20.94
2023-05-02T12:11:39.923Z,20.96
2023-05-02T12:14:06.954Z,20.84
2023-05-02T12:16:34.773Z,20.70
2023-05-02T12:19:02.135Z,20.63
2023-05-02T12:21:35.356Z,20.36
2023-05-02T12:24:02.262Z,20.35
2023-05-02T12:26:32.339Z,20.78
2023-05-02T12:29:00.557Z,20.73
2023-05-02T12:31:28.717Z,20.63
2023-05-02T12:33:57.169Z,20.59
2023-05-02T12:36:27.340Z,20.42
2023-05-02T12:38:58.915Z,20.13
2023-05-02T12:41:33.586Z,19.86
2023-05-02T12:44:00.508Z,20.23
2023-05-02T12:46:27.999Z,20.16
2023-05-02T12:49:13.548Z,20.08
2023-05-02T12:51:41.018Z,20.11
2023-05-02T12:54:07.949Z,20.16
2023-05-02T12:56:43.020Z,20.27
2023-05-02T12:59:11.611Z,20.39
2023-05-02T13:01:39.503Z,19.81
2023-05-02T13:04:06.534Z,19.98
2023-05-02T13:06:37.016Z,19.65
2023-05-02T13:09:04.503Z,19.87
2023-05-02T13:11:32.553Z,20.07
2023-05-02T13:14:03.703Z,19.70
2023-05-02T13:16:31.102Z,19.57
2023-05-02T13:18:58.477Z,19.62
2023-05-02T13:21:25.482Z,19.28
2023-05-02T13:23:53.136Z,19.23
2023-05-02T13:26:21.147Z,19.36
2023-05-02T13:28:48.828Z,19.13
2023-05-02T13:31:15.816Z,19.26
2023-05-02T13:33:42.696Z,19.13
2023-05-02T13:36:09.523Z,19.13
2023-05-02T13:38:36.422Z,18.60
2023-05-02T13:41:04.856Z,18.72
2023-05-02T13:43:34.261Z,18.59
2023-05-02T13:46:01.103Z,18.69
2023-05-02T13:48:29.561Z,18.73
2023-05-02T13:50:56.701Z,18.58
2023-05-02T13:53:24.836Z,18.66
2023-05-02T13:55:51.690Z,18.82
2023-05-02T13:58:18.596Z,18.90
2023-05-02T14:00:46.979Z,18.93
2023-05-02T14:03:14.393Z,18.90
2023-05-02T14:05:43.824Z,18.90
2023-05-02T14:08:11.652Z,19.17
2023-05-02T14:10:40.044Z,19.24
2023-05-02T14:13:07.096Z,19.28
2023-05-02T14:15:34.853Z,18.57
2023-05-02T14:18:02.080Z,18.41
2023-05-02T14:20:29.241Z,18.08
2023-05-02T14:22:56.267Z,17.71
2023-05-02T14:25:23.299Z,17.50
2023-05-02T14:27:53.021Z,17.43
2023-05-02T14:30:19.824Z,17.13
2023-05-02T14:32:47.312Z,16.72
2023-05-02T14:35:14.367Z,16.16
2023-05-02T14:37:44.405Z,16.11
2023-05-02T14:40:12.013Z,15.64
2023-05-02T14:42:42.386Z,15.18
2023-05-02T14:45:09.479Z,14.88
2023-05-02T14:47:36.828Z,14.72
2023-05-02T14:50:05.063Z,14.40
2023-05-02T14:52:34.451Z,14.01
2023-05-02T14:55:01.801Z,13.74
2023-05-02T14:57:28.996Z,13.57
2023-05-02T14:59:56.339Z,13.14
2023-05-02T15:02:23.269Z,13.11
2023-05-02T15:04:50.404Z,13.02
2023-05-02T15:07:17.461Z,12.78
2023-05-02T15:09:44.537Z,12.76
2023-05-02T15:12:12.637Z,12.65
2023-05-02T15:14:39.806Z,12.32
2023-05-02T15:17:07.403Z,12.16
2023-05-02T15:19:34.923Z,11.93
2023-05-02T15:22:02.160Z,11.82
2023-05-02T15:24:29.330Z,11.97
2023-05-02T15:27:01.453Z,11.86
2023-05-02T15:29:28.284Z,11.83
2023-05-02T15:31:55.295Z,11.90
2023-05-02T15:34:22.138Z,11.89
2023-05-02T15:36:48.988Z,11.79
2023-05-02T15:39:16.190Z,11.74
2023-05-02T15:41:46.282Z,11.92
2023-05-02T15:44:13.537Z,12.03
2023-05-02T15:46:46.115Z,12.16
2023-05-02T15:49:13.424Z,12.35
2023-05-02T15:51:40.417Z,12.19
2023-05-02T15:54:07.491Z,12.03
2023-05-02T15:56:34.901Z,11.59
2023-05-02T15:59:04.492Z,11.36
2023-05-02T16:01:31.392Z,11.29
2023-05-02T16:03:58.751Z,11.29
2023-05-02T16:06:25.681Z,11.22
2023-05-02T16:08:55.412Z,11.11
2023-05-02T16:11:22.206Z,11.07
2023-05-02T16:13:49.154Z,11.32
2023-05-02T16:16:15.982Z,11.41
2023-05-02T16:18:43.059Z,11.47
2023-05-02T16:21:11.034Z,11.48
2023-05-02T16:23:37.853Z,11.67
2023-05-02T16:26:04.872Z,12.03
2023-05-02T16:28:31.767Z,12.17
2023-05-02T16:30:58.702Z,12.26
2023-05-02T16:33:26.718Z,12.51
2023-05-02T16:36:01.586Z,12.82
2023-05-02T16:38:28.612Z,13.08
2023-05-02T16:43:38.431Z,13.73
2023-05-02T16:46:06.093Z,14.20
2023-05-02T16:48:33.292Z,14.90
2023-05-02T16:51:01.679Z,15.43
2023-05-02T16:53:31.599Z,16.02
2023-05-02T16:55:59.109Z,16.48
2023-05-02T16:58:28.216Z,17.06
2023-05-02T17:00:57.878Z,17.50
2023-05-02T17:03:25.308Z,17.94
2023-05-02T17:05:55.150Z,18.35
2023-05-02T17:08:24.895Z,18.88
2023-05-02T17:10:52.125Z,19.36
2023-05-02T17:13:19.108Z,19.74
2023-05-02T17:15:45.923Z,20.25
2023-05-02T17:18:12.871Z,21.28
2023-05-02T17:20:40.841Z,22.14
2023-05-02T17:23:08.579Z,23.32
2023-05-02T17:25:36.052Z,24.22
2023-05-02T17:28:02.917Z,24.87
2023-05-02T17:30:31.578Z,25.44
2023-05-02T17:32:58.799Z,26.16
2023-05-02T17:35:25.677Z,26.81
2023-05-02T17:37:52.522Z,27.28
2023-05-02T17:40:19.445Z,27.55
2023-05-02T17:42:46.719Z,28.01
2023-05-02T17:45:14.611Z,28.56
2023-05-02T17:47:41.547Z,28.97
2023-05-02T17:50:08.711Z,29.63
2023-05-02T17:52:36.272Z,30.06
2023-05-02T17:55:04.585Z,30.69
2023-05-02T17:57:31.473Z,30.91
2023-05-02T17:59:59.026Z,31.53
2023-05-02T18:02:27.061Z,32.12
2023-05-02T18:04:55.865Z,32.47
2023-05-02T18:07:28.566Z,32.81
2023-05-02T18:09:56.358Z,33.11
2023-05-02T18:12:23.761Z,33.40
2023-05-02T18:14:52.011Z,33.85
2023-05-02T18:17:20.410Z,34.20
2023-05-02T18:19:52.337Z,34.39
2023-05-02T18:22:23.262Z,34.55
2023-05-02T18:24:50.459Z,34.92
2023-05-02T18:27:17.512Z,35.29
2023-05-02T18:29:44.569Z,35.64
2023-05-02T18:32:11.514Z,35.89
2023-05-02T18:34:39.154Z,36.15
2023-05-02T18:37:06.461Z,36.35
2023-05-02T18:39:34.471Z,36.54
2023-05-02T18:42:04.948Z,36.68
2023-05-02T18:44:32.130Z,36.97
2023-05-02T18:46:59.043Z,37.18
2023-05-02T18:49:26.230Z,37.42
2023-05-02T18:51:54.298Z,37.69
2023-05-02T18:54:22.798Z,37.80
2023-05-02T18:56:51.198Z,38.00
2023-05-02T18:59:28.268Z,38.26
2023-05-02T19:01:56.125Z,38.63
2023-05-02T19:04:23.288Z,38.77
2023-05-02T19:06:50.336Z,38.89
2023-05-02T19:09:18.288Z,39.02
2023-05-02T19:11:49.036Z,39.03
2023-05-02T19:14:16.334Z,39.25
2023-05-02T19:16:47.778Z,39.31
2023-05-02T19:19:15.370Z,39.41
2023-05-02T19:21:42.392Z,39.38
2023-05-02T19:24:09.197Z,39.58
2023-05-02T19:26:58.177Z,39.75
2023-05-02T19:29:40.844Z,39.95
2023-05-02T19:32:07.948Z,40.07
2023-05-02T19:34:36.637Z,40.18
2023-05-02T19:37:03.665Z,40.22
2023-05-02T19:39:32.195Z,40.44
2023-05-02T19:41:59.877Z,40.53
2023-05-02T19:44:28.646Z,40.51
2023-05-02T19:46:58.675Z,40.77
2023-05-02T19:49:27.234Z,40.91
2023-05-02T19:51:54.440Z,40.95
2023-05-02T19:54:24.823Z,41.19
2023-05-02T19:56:51.928Z,41.45
2023-05-02T19:59:22.240Z,41.51
2023-05-02T20:01:49.982Z,41.64
2023-05-02T20:04:20.104Z,41.76
2023-05-02T20:06:51.097Z,41.92
2023-05-02T20:09:18.802Z,41.92
2023-05-02T20:11:45.872Z,42.02
2023-05-02T20:14:13.308Z,42.11
2023-05-02T20:16:40.163Z,42.37
2023-05-02T20:19:07.268Z,42.35
2023-05-02T20:21:34.710Z,42.49
2023-05-02T20:24:01.568Z,42.49
2023-05-02T20:26:30.921Z,42.53
2023-05-02T20:28:58.284Z,42.47
2023-05-02T20:31:25.877Z,42.50
2023-05-02T20:33:55.280Z,42.75
2023-05-02T20:36:22.974Z,42.83
2023-05-02T20:38:50.144Z,42.93
2023-05-02T20:41:17.372Z,43.10
2023-05-02T20:43:45.467Z,43.11
2023-05-02T20:46:17.547Z,43.24
2023-05-02T20:48:44.452Z,43.15
2023-05-02T20:51:12.570Z,43.19
2023-05-02T20:53:40.213Z,43.17
2023-05-02T20:56:08.100Z,43.35
2023-05-02T20:58:35.493Z,43.45
2023-05-02T21:01:02.897Z,43.66
2023-05-02T21:03:36.070Z,43.71
2023-05-02T21:06:03.593Z,43.67
2023-05-02T21:08:30.869Z,43.62
2023-05-02T21:10:58.045Z,43.72
2023-05-02T21:13:25.512Z,43.63
2023-05-02T21:15:52.874Z,43.74
2023-05-02T21:18:20.567Z,43.72
2023-05-02T21:20:53.233Z,43.64
2023-05-02T21:23:21.834Z,43.72
2023-05-02T21:25:48.696Z,43.61
2023-05-02T21:28:15.547Z,43.51
2023-05-02T21:30:42.381Z,43.59
2023-05-02T21:33:12.545Z,43.49
2023-05-02T21:35:39.833Z,43.56
2023-05-02T21:38:07.092Z,43.64
2023-05-02T21:40:35.288Z,43.67
2023-05-02T21:43:02.235Z,43.68
2023-05-02T21:45:29.980Z,43.74
2023-05-02T21:47:57.211Z,43.75
2023-05-02T21:50:24.120Z,44.00
2023-05-02T21:52:51.893Z,44.11
2023-05-02T21:55:18.773Z,44.26
2023-05-02T21:57:45.925Z,44.44
2023-05-02T22:00:13.121Z,44.54
2023-05-02T22:02:41.292Z,44.50
2023-05-02T22:05:08.578Z,44.63
2023-05-02T22:07:37.625Z,44.64
2023-05-02T22:10:06.221Z,44.98
2023-05-02T22:12:34.256Z,44.98
2023-05-02T22:15:01.284Z,45.13
2023-05-02T22:17:31.246Z,45.20
2023-05-02T22:19:58.088Z,45.49
2023-05-02T22:22:25.113Z,45.44
2023-05-02T22:24:53.007Z,45.48
2023-05-02T22:27:20.094Z,45.52
2023-05-02T22:29:47.011Z,45.44
2023-05-02T22:32:13.826Z,45.47
2023-05-02T22:34:44.526Z,45.54
2023-05-02T22:37:12.168Z,45.81
2023-05-02T22:39:39.064Z,46.07
2023-05-02T22:42:06.066Z,45.92
2023-05-02T22:44:46.713Z,45.97
2023-05-02T22:47:21.211Z,45.89
2023-05-02T22:50:06.961Z,46.13
2023-05-02T22:52:37.158Z,46.36
2023-05-02T22:55:09.230Z,46.28
2023-05-02T22:57:36.676Z,46.33
2023-05-02T23:00:09.087Z,46.37
2023-05-02T23:02:36.587Z,46.40
2023-05-02T23:05:04.054Z,46.40
2023-05-02T23:07:31.280Z,46.52
2023-05-02T23:09:58.200Z,46.75
2023-05-02T23:12:26.700Z,46.97
2023-05-02T23:14:53.615Z,47.19
2023-05-02T23:17:21.274Z,47.29
2023-05-02T23:19:50.117Z,47.24
2023-05-02T23:22:17.700Z,47.19
2023-05-02T23:24:46.885Z,47.11
2023-05-02T23:27:13.711Z,47.21
2023-05-02T23:29:42.371Z,47.22
2023-05-02T23:32:09.462Z,47.18
2023-05-02T23:34:36.648Z,47.15
2023-05-02T23:37:05.711Z,47.26
2023-05-02T23:39:32.965Z,47.39
2023-05-02T23:42:00.298Z,47.34
2023-05-02T23:44:27.342Z,47.51
2023-05-02T23:46:54.234Z,47.63
2023-05-02T23:49:21.282Z,47.76
2023-05-02T23:51:50.294Z,47.76
2023-05-02T23:54:17.507Z,47.86
2023-05-02T23:56:44.554Z,47.88
2023-05-02T23:59:11.364Z,48.17
